Time;durP1;ratioP1;P1;durP2;ratioP2;P2;SDS_P1;SDS_P2;PMS_P1;PMS_P2;Temp;Humidity;BMP_temperature;BMP_pressure;BME280_temperature;BME280_humidity;BME280_pressure;Samples;Min_cycle;Max_cycle;Signal;HPM_P1;HPM_P2
2023/03/14 00:00:58;;;;;;;1.92;1.02;;;;;;;10.25;100.00;98225.84;5095847;29;20464;-74
2023/03/14 00:03:29;;;;;;;0.85;0.43;;;;;;;10.17;100.00;98238.63;5111204;29;20039;-75
2023/03/14 00:06:04;;;;;;;2.00;0.80;;;;;;;10.15;100.00;98241.34;5097848;29;20027;-73
2023/03/14 00:08:35;;;;;;;2.67;0.77;;;;;;;9.97;100.00;98236.56;5096695;29;20545;-71
2023/03/14 00:11:12;;;;;;;2.80;0.80;;;;;;;9.92;100.00;98223.00;5103845;29;20044;-74
2023/03/14 00:13:43;;;;;;;2.33;0.65;;;;;;;10.07;100.00;98208.91;5099237;29;20126;-74
2023/03/14 00:16:13;;;;;;;2.90;0.90;;;;;;;10.20;100.00;98196.66;5100674;29;20027;-74
2023/03/14 00:18:43;;;;;;;1.20;0.80;;;;;;;10.32;100.00;98193.97;5100284;29;20031;-74
2023/03/14 00:21:14;;;;;;;6.13;1.20;;;;;;;10.43;100.00;98182.75;5109301;28;20099;-75
2023/03/14 00:23:45;;;;;;;3.17;0.90;;;;;;;10.65;100.00;98180.25;5093280;29;20039;-74
2023/03/14 00:26:18;;;;;;;2.70;0.90;;;;;;;10.75;100.00;98192.50;5098804;29;20027;-75
2023/03/14 00:28:53;;;;;;;2.88;0.70;;;;;;;10.73;100.00;98201.41;5094280;29;20031;-76
2023/03/14 00:31:23;;;;;;;1.85;0.90;;;;;;;10.54;100.00;98178.41;5096056;29;20136;-73
2023/03/14 00:33:54;;;;;;;1.92;1.00;;;;;;;10.53;100.00;98148.00;5095953;29;20338;-77
2023/03/14 00:36:24;;;;;;;3.30;1.15;;;;;;;10.52;100.00;98162.03;5096382;29;20788;-75
2023/03/14 00:38:55;;;;;;;1.75;0.82;;;;;;;10.63;100.00;98172.53;5096736;29;20048;-76
2023/03/14 00:41:25;;;;;;;3.08;1.00;;;;;;;10.81;100.00;98186.81;5096386;29;20067;-76
2023/03/14 00:43:55;;;;;;;2.65;0.88;;;;;;;10.68;100.00;98187.84;5102820;29;20246;-75
2023/03/14 00:46:26;;;;;;;3.35;1.55;;;;;;;10.83;100.00;98195.38;5087544;29;20090;-74
2023/03/14 00:48:56;;;;;;;3.17;1.30;;;;;;;10.81;100.00;98189.44;5100801;29;20578;-75
2023/03/14 00:51:26;;;;;;;2.42;0.80;;;;;;;10.88;100.00;98195.03;5093616;29;20401;-74
2023/03/14 00:53:57;;;;;;;2.38;0.93;;;;;;;11.02;100.00;98195.66;5078503;29;20027;-75
2023/03/14 00:56:27;;;;;;;2.88;1.13;;;;;;;10.89;100.00;98205.38;5096151;29;20032;-74
2023/03/14 00:58:57;;;;;;;2.78;1.10;;;;;;;10.96;100.00;98210.97;5097091;29;20165;-75
2023/03/14 01:01:28;;;;;;;2.53;0.93;;;;;;;10.95;100.00;98206.69;5096444;29;20114;-74
2023/03/14 01:03:58;;;;;;;1.30;0.70;;;;;;;10.99;100.00;98213.38;5095097;29;20111;-75
2023/03/14 01:06:29;;;;;;;1.65;0.75;;;;;;;10.92;100.00;98214.75;5110652;29;20042;-76
2023/03/14 01:08:59;;;;;;;2.88;1.13;;;;;;;10.93;100.00;98211.19;5095735;29;20042;-73
2023/03/14 01:11:32;;;;;;;2.72;1.10;;;;;;;11.02;100.00;98215.75;5095983;29;20031;-75
2023/03/14 01:14:04;;;;;;;4.40;1.25;;;;;;;11.02;100.00;98213.13;5102374;29;20584;-73
2023/03/14 01:16:35;;;;;;;2.70;0.80;;;;;;;11.12;100.00;98204.50;5097744;29;20505;-75
2023/03/14 01:19:05;;;;;;;1.27;0.63;;;;;;;11.07;100.00;98197.00;5105483;29;20035;-74
2023/03/14 01:21:38;;;;;;;2.20;0.90;;;;;;;11.15;100.00;98185.97;5129455;23;20082;-72
2023/03/14 01:24:10;;;;;;;3.00;0.70;;;;;;;11.15;100.00;98178.97;5120292;28;20283;-71
2023/03/14 01:26:41;;;;;;;1.20;0.65;;;;;;;11.18;100.00;98191.78;5113829;29;20614;-71
2023/03/14 01:29:11;;;;;;;2.50;0.80;;;;;;;11.16;100.00;98187.63;5115424;29;20043;-72
2023/03/14 01:31:41;;;;;;;6.32;1.08;;;;;;;11.11;100.00;98194.97;5110397;29;20035;-72
2023/03/14 01:34:12;;;;;;;1.50;0.70;;;;;;;11.16;100.00;98193.69;5103088;29;20465;-72
2023/03/14 01:36:42;;;;;;;4.70;1.77;;;;;;;11.02;100.00;98191.28;5105266;29;20050;-72
2023/03/14 01:39:12;;;;;;;3.05;0.77;;;;;;;11.13;100.00;98180.00;5104592;29;20512;-72
2023/03/14 01:41:43;;;;;;;1.98;0.55;;;;;;;11.17;100.00;98160.53;5102848;29;20032;-71
2023/03/14 01:44:13;;;;;;;1.77;0.60;;;;;;;11.16;100.00;98157.09;5100822;29;20051;-72
2023/03/14 01:46:48;;;;;;;2.17;0.60;;;;;;;11.14;100.00;98151.13;5093931;29;20043;-72
2023/03/14 01:49:29;;;;;;;0.77;0.40;;;;;;;11.07;100.00;98136.88;5113894;28;20117;-72
2023/03/14 01:52:08;;;;;;;3.33;0.55;;;;;;;11.07;100.00;98152.56;5089932;29;20035;-72
2023/03/14 01:54:47;;;;;;;1.65;0.70;;;;;;;11.15;100.00;98165.03;5094737;29;20063;-71
2023/03/14 01:57:21;;;;;;;1.77;0.80;;;;;;;11.16;100.00;98167.56;5103172;29;20039;-72
2023/03/14 01:59:56;;;;;;;2.95;0.80;;;;;;;11.12;100.00;98160.88;5106019;29;20027;-72
2023/03/14 02:02:27;;;;;;;4.22;1.10;;;;;;;11.22;100.00;98146.16;5106844;29;20082;-72
2023/03/14 02:04:59;;;;;;;2.22;0.57;;;;;;;11.18;100.00;98136.91;5108867;29;20035;-72
2023/03/14 02:07:40;;;;;;;1.08;0.47;;;;;;;11.16;100.00;98140.56;5110952;29;20497;-72
2023/03/14 02:10:11;;;;;;;2.00;0.73;;;;;;;11.20;100.00;98136.75;5107547;29;20035;-71
2023/03/14 02:12:42;;;;;;;0.98;0.55;;;;;;;11.24;100.00;98128.56;5096788;29;20523;-71
2023/03/14 02:15:13;;;;;;;1.33;0.57;;;;;;;11.22;100.00;98122.63;5113647;29;20035;-71
2023/03/14 02:17:45;;;;;;;2.67;1.23;;;;;;;11.18;100.00;98118.59;5116071;29;20414;-71
2023/03/14 02:20:38;;;;;;;1.83;0.70;;;;;;;11.12;100.00;98118.25;5116534;29;20921;-71
2023/03/14 02:23:09;;;;;;;2.75;0.85;;;;;;;11.15;100.00;98103.16;5104626;29;20367;-72
2023/03/14 02:25:51;;;;;;;1.55;0.50;;;;;;;11.17;100.00;98106.47;5106281;29;20078;-71
2023/03/14 02:28:22;;;;;;;2.20;0.77;;;;;;;11.06;100.00;98108.22;5106149;29;20118;-72
2023/03/14 02:30:52;;;;;;;4.05;0.80;;;;;;;11.12;100.00;98123.47;5109015;29;20039;-71
2023/03/14 02:33:23;;;;;;;3.50;0.70;;;;;;;11.06;100.00;98131.75;5105501;29;20085;-72
2023/03/14 02:35:58;;;;;;;4.07;0.60;;;;;;;11.03;100.00;98125.00;5106855;29;20059;-71
2023/03/14 02:38:34;;;;;;;5.97;0.93;;;;;;;11.10;100.00;98123.56;5101955;29;20236;-72
2023/03/14 02:41:05;;;;;;;4.03;1.05;;;;;;;11.08;100.00;98143.78;5107782;29;20424;-72
2023/03/14 02:43:36;;;;;;;5.60;1.20;;;;;;;11.06;100.00;98145.66;5110267;29;20049;-71
2023/03/14 02:46:11;;;;;;;4.40;0.93;;;;;;;11.00;100.00;98139.25;5115884;29;20397;-71
2023/03/14 02:48:48;;;;;;;5.82;0.90;;;;;;;11.05;100.00;98137.94;5115544;29;20058;-71
2023/03/14 02:51:20;;;;;;;1.80;0.65;;;;;;;11.00;100.00;98137.47;5100104;29;20043;-71
2023/03/14 02:53:50;;;;;;;2.67;0.70;;;;;;;10.97;100.00;98126.41;5101640;29;20038;-72
2023/03/14 02:56:20;;;;;;;2.72;0.80;;;;;;;10.92;100.00;98131.16;5104075;29;20027;-72
2023/03/14 02:58:51;;;;;;;4.55;1.00;;;;;;;10.93;100.00;98136.28;5103386;29;20178;-71
2023/03/14 03:01:21;;;;;;;1.90;0.60;;;;;;;10.89;100.00;98120.94;5117003;28;20055;-71
2023/03/14 03:03:51;;;;;;;3.75;0.90;;;;;;;10.93;100.00;98112.75;5108549;29;20023;-72
2023/03/14 03:06:22;;;;;;;1.63;0.75;;;;;;;10.85;100.00;98109.06;5105963;29;20317;-72
2023/03/14 03:08:52;;;;;;;5.20;1.25;;;;;;;10.92;100.00;98110.25;5109235;29;20080;-72
2023/03/14 03:11:23;;;;;;;1.55;0.60;;;;;;;10.85;100.00;98098.59;5106782;29;20044;-71
2023/03/14 03:13:53;;;;;;;4.65;0.60;;;;;;;10.82;100.00;98091.00;5109127;29;20066;-71
2023/03/14 03:16:23;;;;;;;3.47;0.77;;;;;;;10.79;100.00;98078.16;5114158;29;20032;-72
2023/03/14 03:18:53;;;;;;;1.02;0.50;;;;;;;10.86;100.00;98074.97;5105626;29;20027;-72
2023/03/14 03:21:24;;;;;;;2.58;0.90;;;;;;;10.76;100.00;98070.56;5110767;29;20035;-72
2023/03/14 03:23:54;;;;;;;2.97;1.02;;;;;;;10.76;100.00;98074.03;5108855;29;20445;-72
2023/03/14 03:26:24;;;;;;;3.05;0.70;;;;;;;10.76;100.00;98063.56;5109704;29;20030;-71
2023/03/14 03:28:55;;;;;;;1.92;0.57;;;;;;;10.84;100.00;98081.28;5113970;29;20449;-72
2023/03/14 03:31:25;;;;;;;1.02;0.52;;;;;;;10.90;100.00;98070.34;5116894;29;20038;-73
2023/03/14 03:33:56;;;;;;;1.70;0.60;;;;;;;10.81;100.00;98074.50;5108234;29;20481;-72
2023/03/14 03:36:27;;;;;;;1.52;0.50;;;;;;;10.87;100.00;98075.81;5086647;29;20501;-72
2023/03/14 03:38:57;;;;;;;4.35;0.80;;;;;;;10.80;100.00;98074.59;5116763;29;20046;-72
2023/03/14 03:41:28;;;;;;;2.13;0.57;;;;;;;10.87;100.00;98065.34;5108802;29;20122;-71
2023/03/14 03:43:58;;;;;;;1.67;0.55;;;;;;;10.84;100.00;98058.56;5116458;29;20050;-72
2023/03/14 03:46:28;;;;;;;2.13;0.70;;;;;;;10.84;100.00;98055.97;5114525;29;20063;-72
2023/03/14 03:48:59;;;;;;;3.55;0.70;;;;;;;10.69;100.00;98038.03;5099309;29;20121;-72
2023/03/14 03:51:30;;;;;;;1.85;0.60;;;;;;;10.79;100.00;98041.59;5116403;29;20528;-71
2023/03/14 03:54:00;;;;;;;1.48;0.43;;;;;;;10.71;100.00;98033.53;5111526;29;20063;-72
2023/03/14 03:56:31;;;;;;;3.30;0.70;;;;;;;10.65;100.00;98044.44;5115752;29;20042;-71
2023/03/14 03:59:01;;;;;;;0.90;0.52;;;;;;;10.66;100.00;98040.88;5116318;29;20023;-71
2023/03/14 04:01:32;;;;;;;1.88;0.63;;;;;;;10.63;100.00;98052.38;5116354;29;20303;-71
2023/03/14 04:04:02;;;;;;;2.00;0.40;;;;;;;10.62;100.00;98036.81;5113215;29;20058;-71
2023/03/14 04:06:33;;;;;;;2.97;0.60;;;;;;;10.60;100.00;98047.41;5114985;29;20450;-71
2023/03/14 04:09:03;;;;;;;1.35;0.52;;;;;;;10.59;100.00;98037.91;5115384;29;20031;-69
2023/03/14 04:11:34;;;;;;;1.30;0.47;;;;;;;10.64;100.00;98042.75;5111892;28;20043;-71
2023/03/14 04:14:05;;;;;;;1.13;0.57;;;;;;;10.58;100.00;98043.22;5113169;29;20146;-71
2023/03/14 04:16:36;;;;;;;1.30;0.50;;;;;;;10.59;100.00;98044.88;5098195;29;20039;-71
2023/03/14 04:19:06;;;;;;;1.45;1.00;;;;;;;10.68;100.00;98050.25;5117090;29;20058;-70
2023/03/14 04:21:40;;;;;;;1.88;0.60;;;;;;;10.62;100.00;98057.72;5115716;29;20413;-71
2023/03/14 04:24:10;;;;;;;1.58;0.50;;;;;;;10.63;100.00;98052.38;5107422;29;20375;-70
2023/03/14 04:26:41;;;;;;;2.15;0.70;;;;;;;10.73;100.00;98057.75;5109694;29;20038;-70
2023/03/14 04:29:11;;;;;;;4.60;0.68;;;;;;;10.72;100.00;98037.78;5115609;29;20067;-71
2023/03/14 04:31:42;;;;;;;5.50;0.80;;;;;;;10.69;100.00;98045.88;5102180;29;20557;-70
2023/03/14 04:34:12;;;;;;;1.58;0.70;;;;;;;10.64;100.00;98055.81;5105005;29;20027;-71
2023/03/14 04:36:42;;;;;;;2.05;0.63;;;;;;;10.65;100.00;98049.66;5115525;29;20117;-71
2023/03/14 04:39:13;;;;;;;3.35;0.55;;;;;;;10.49;100.00;98049.16;5116096;29;20053;-71
2023/03/14 04:41:44;;;;;;;2.33;0.70;;;;;;;10.49;100.00;98055.19;5115027;29;20407;-70
2023/03/14 04:44:14;;;;;;;2.22;0.60;;;;;;;10.57;100.00;98052.00;5114853;29;20031;-71
2023/03/14 04:46:45;;;;;;;2.25;0.73;;;;;;;10.62;100.00;98055.09;5111069;29;20556;-71
2023/03/14 04:49:15;;;;;;;4.43;0.60;;;;;;;10.63;100.00;98044.56;5115441;29;20047;-71
2023/03/14 04:51:45;;;;;;;1.17;0.47;;;;;;;10.77;100.00;98048.72;5110431;29;20046;-71
2023/03/14 04:54:16;;;;;;;2.25;0.57;;;;;;;10.81;100.00;98048.38;5113144;29;20050;-71
2023/03/14 04:56:47;;;;;;;1.42;0.57;;;;;;;10.81;100.00;98050.97;5098262;29;20035;-71
2023/03/14 04:59:17;;;;;;;2.33;0.50;;;;;;;10.75;100.00;98046.25;5108636;29;20125;-71
2023/03/14 05:01:49;;;;;;;3.45;0.50;;;;;;;10.76;100.00;98067.94;5101719;29;20457;-71
2023/03/14 05:04:19;;;;;;;3.63;0.60;;;;;;;10.72;100.00;98058.69;5100143;29;20035;-71
2023/03/14 05:06:50;;;;;;;3.08;0.68;;;;;;;10.75;100.00;98061.91;5105126;29;20066;-71
2023/03/14 05:09:20;;;;;;;1.77;0.70;;;;;;;10.64;100.00;98064.50;5115428;29;20046;-71
2023/03/14 05:11:50;;;;;;;2.00;0.50;;;;;;;10.63;100.00;98054.16;5114725;29;20034;-71
2023/03/14 05:14:21;;;;;;;2.38;0.63;;;;;;;10.59;100.00;98053.56;5115046;29;20035;-71
2023/03/14 05:16:51;;;;;;;1.80;0.50;;;;;;;10.59;100.00;98057.94;5115050;29;20055;-70
2023/03/14 05:19:21;;;;;;;3.75;0.95;;;;;;;10.53;100.00;98061.03;5115147;29;20023;-71
2023/03/14 05:21:52;;;;;;;1.45;0.45;;;;;;;10.52;100.00;98047.13;5110266;29;20023;-71
2023/03/14 05:24:22;;;;;;;3.67;0.70;;;;;;;10.49;100.00;98054.38;5086496;29;20360;-71
2023/03/14 05:26:53;;;;;;;1.83;0.50;;;;;;;10.49;100.00;98047.38;5104992;29;20330;-71
2023/03/14 05:29:23;;;;;;;2.67;0.50;;;;;;;10.45;100.00;98060.75;5103937;29;20043;-71
2023/03/14 05:31:53;;;;;;;2.17;0.60;;;;;;;10.38;100.00;98043.91;5103241;29;20050;-70
2023/03/14 05:34:24;;;;;;;1.80;0.45;;;;;;;10.35;100.00;98057.19;5106869;29;20125;-71
2023/03/14 05:36:56;;;;;;;3.47;0.77;;;;;;;10.44;100.00;98051.28;5103917;29;20032;-71
2023/03/14 05:39:26;;;;;;;3.90;1.05;;;;;;;10.31;100.00;98053.16;5112439;29;20035;-71
2023/03/14 05:41:56;;;;;;;6.20;1.10;;;;;;;10.41;100.00;98051.50;5097072;29;20038;-71
2023/03/14 05:44:26;;;;;;;3.55;1.00;;;;;;;10.34;100.00;98045.91;5108045;29;20038;-71
2023/03/14 05:46:57;;;;;;;3.25;0.65;;;;;;;10.31;100.00;98058.38;5108784;29;20032;-71
2023/03/14 05:49:27;;;;;;;2.55;0.75;;;;;;;10.24;100.00;98057.16;5106947;29;20500;-71
2023/03/14 05:51:58;;;;;;;1.42;0.50;;;;;;;10.33;100.00;98046.84;5102608;29;20027;-71
2023/03/14 05:54:28;;;;;;;2.17;0.40;;;;;;;10.28;100.00;98040.31;5096819;29;20129;-71
2023/03/14 05:56:58;;;;;;;1.02;0.40;;;;;;;10.18;100.00;98041.97;5103219;29;20070;-71
2023/03/14 05:59:28;;;;;;;1.20;0.40;;;;;;;10.19;100.00;98043.63;5099545;29;20626;-71
2023/03/14 06:01:59;;;;;;;1.85;0.43;;;;;;;10.17;100.00;98048.13;5103728;29;20490;-71
2023/03/14 06:04:29;;;;;;;0.85;0.30;;;;;;;10.08;100.00;98049.63;5105255;29;20509;-71
2023/03/14 06:06:59;;;;;;;1.92;0.30;;;;;;;10.10;100.00;98042.53;5104985;29;20094;-71
2023/03/14 06:09:30;;;;;;;2.90;0.68;;;;;;;10.14;100.00;98048.34;5103685;29;20040;-71
2023/03/14 06:12:00;;;;;;;0.63;0.22;;;;;;;10.12;100.00;98051.06;5106749;29;20184;-71
2023/03/14 06:14:31;;;;;;;1.25;0.25;;;;;;;10.14;100.00;98043.13;5110476;29;20035;-71
2023/03/14 06:17:01;;;;;;;2.55;0.30;;;;;;;10.02;100.00;98055.28;5110842;29;20087;-70
2023/03/14 06:19:32;;;;;;;1.75;0.45;;;;;;;10.02;100.00;98047.47;5106236;29;20031;-70
2023/03/14 06:22:02;;;;;;;0.40;0.20;;;;;;;10.04;100.00;98060.41;5105657;29;20035;-71
2023/03/14 06:24:32;;;;;;;0.82;0.30;;;;;;;10.04;100.00;98056.03;5082534;29;20059;-71
2023/03/14 06:27:03;;;;;;;1.25;0.35;;;;;;;10.02;100.00;98060.50;5105245;29;20027;-71
2023/03/14 06:29:33;;;;;;;1.48;0.20;;;;;;;9.96;100.00;98060.13;5086141;29;20047;-71
2023/03/14 06:32:05;;;;;;;0.60;0.20;;;;;;;10.04;100.00;98055.19;5100196;29;20383;-71
2023/03/14 06:34:35;;;;;;;3.45;0.20;;;;;;;9.95;100.00;98069.69;5099997;29;20078;-71
2023/03/14 06:37:05;;;;;;;1.23;0.20;;;;;;;9.96;100.00;98071.38;5101145;29;20546;-71
2023/03/14 06:39:37;;;;;;;0.85;0.28;;;;;;;9.88;100.00;98078.09;5106759;29;20413;-71
2023/03/14 06:42:07;;;;;;;1.52;0.30;;;;;;;9.91;100.00;98072.63;5107021;29;20563;-71
2023/03/14 06:44:38;;;;;;;0.55;0.20;;;;;;;9.95;100.00;98080.13;5110670;29;20035;-71
2023/03/14 06:47:08;;;;;;;0.80;0.30;;;;;;;10.04;100.00;98084.72;5097565;29;20035;-71
2023/03/14 06:49:38;;;;;;;2.50;0.17;;;;;;;10.05;100.00;98093.38;5108695;29;20030;-71
2023/03/14 06:52:08;;;;;;;0.55;0.30;;;;;;;10.20;100.00;98081.81;5106924;29;20028;-70
2023/03/14 06:54:39;;;;;;;1.83;0.40;;;;;;;10.45;100.00;98079.03;5108548;29;20034;-71
2023/03/14 06:57:09;;;;;;;1.65;0.45;;;;;;;10.66;100.00;98077.44;5106153;29;20117;-71
2023/03/14 06:59:39;;;;;;;1.77;0.32;;;;;;;10.69;100.00;98072.81;5097872;29;20413;-71
2023/03/14 07:02:13;;;;;;;1.10;0.40;;;;;;;10.72;100.00;98076.97;5116074;29;20106;-71
2023/03/14 07:04:43;;;;;;;2.63;0.50;;;;;;;10.76;100.00;98078.41;5115574;29;20343;-71
2023/03/14 07:07:13;;;;;;;4.03;0.60;;;;;;;11.09;100.00;98067.03;5114820;29;20451;-70
2023/03/14 07:09:44;;;;;;;1.33;0.40;;;;;;;11.11;99.51;98070.34;5098846;29;20031;-71
2023/03/14 07:12:14;;;;;;;2.08;0.60;;;;;;;11.30;98.67;98062.72;5106556;29;20042;-71
2023/03/14 07:14:44;;;;;;;8.00;0.65;;;;;;;11.33;98.97;98052.06;5114800;29;20497;-71
2023/03/14 07:17:15;;;;;;;3.33;0.65;;;;;;;11.47;97.82;98057.00;5112652;29;20035;-71
2023/03/14 07:19:45;;;;;;;2.58;1.10;;;;;;;11.48;97.90;98061.28;5108531;29;20047;-71
2023/03/14 07:22:16;;;;;;;2.95;0.90;;;;;;;11.78;95.80;98055.44;5119043;23;20058;-74
2023/03/14 07:24:46;;;;;;;2.53;0.70;;;;;;;11.83;95.90;98058.50;5083943;29;20036;-74
2023/03/14 07:27:16;;;;;;;3.85;0.70;;;;;;;11.93;95.50;98067.28;5101034;29;20140;-74
2023/03/14 07:29:47;;;;;;;1.27;0.40;;;;;;;12.01;94.27;98060.47;5101701;29;20106;-73
2023/03/14 07:32:17;;;;;;;2.13;0.50;;;;;;;12.43;94.15;98056.94;5098526;29;20027;-73
2023/03/14 07:34:47;;;;;;;1.63;0.50;;;;;;;13.33;89.65;98049.16;5108039;29;20062;-73
2023/03/14 07:37:18;;;;;;;2.75;0.80;;;;;;;13.31;87.17;98048.47;5111014;29;20474;-74
2023/03/14 07:39:48;;;;;;;2.97;0.55;;;;;;;13.25;88.77;98055.06;5100666;29;20028;-74
2023/03/14 07:42:18;;;;;;;2.95;0.73;;;;;;;13.06;90.13;98048.94;5088948;29;20031;-74
2023/03/14 07:44:49;;;;;;;4.03;0.95;;;;;;;12.82;90.82;98045.72;5107311;29;20058;-74
2023/03/14 07:47:19;;;;;;;3.38;0.90;;;;;;;12.74;91.23;98037.69;5103957;28;20028;-74
2023/03/14 07:49:49;;;;;;;2.83;0.80;;;;;;;12.49;92.64;98038.09;5100408;29;20042;-74
2023/03/14 07:52:20;;;;;;;3.70;0.93;;;;;;;12.56;93.83;98039.25;5098981;29;20024;-73
2023/03/14 07:54:50;;;;;;;4.38;0.85;;;;;;;12.43;94.55;98048.28;5114683;29;20067;-73
2023/03/14 07:57:20;;;;;;;3.28;1.00;;;;;;;12.72;94.46;98034.38;5100103;29;20375;-73
2023/03/14 07:59:51;;;;;;;3.75;0.95;;;;;;;13.59;89.98;98037.22;5099632;29;20040;-73
2023/03/14 08:02:23;;;;;;;2.13;0.43;;;;;;;14.02;88.58;98016.69;5100394;29;20023;-73
2023/03/14 08:04:54;;;;;;;5.47;1.40;;;;;;;14.55;85.10;98031.03;5108088;29;20039;-74
2023/03/14 08:07:24;;;;;;;3.72;1.13;;;;;;;15.54;82.42;98025.06;5107825;29;20031;-75
2023/03/14 08:09:54;;;;;;;3.10;0.70;;;;;;;15.80;80.95;98018.91;5089255;29;20059;-73
2023/03/14 08:12:25;;;;;;;2.70;0.85;;;;;;;16.02;77.85;98007.13;5102805;29;20027;-74
2023/03/14 08:14:55;;;;;;;3.20;0.82;;;;;;;16.46;75.26;98014.94;5101840;29;20103;-73
2023/03/14 08:17:25;;;;;;;2.88;0.63;;;;;;;15.83;76.36;98015.97;5097685;29;20027;-73
2023/03/14 08:19:56;;;;;;;2.17;0.52;;;;;;;15.02;80.30;98010.72;5099179;29;20043;-74
2023/03/14 08:22:26;;;;;;;2.53;0.57;;;;;;;15.98;77.38;98008.38;5096736;28;20236;-74
2023/03/14 08:24:56;;;;;;;4.82;0.70;;;;;;;17.10;73.74;98004.78;5098630;29;20024;-74
2023/03/14 08:27:27;;;;;;;2.80;0.60;;;;;;;17.14;72.76;97998.22;5109086;29;20026;-74
2023/03/14 08:29:57;;;;;;;3.17;0.75;;;;;;;16.66;74.52;98002.38;5098482;29;20055;-74
2023/03/14 08:32:28;;;;;;;2.17;0.57;;;;;;;16.96;74.08;98002.75;5097770;29;20533;-75
2023/03/14 08:34:59;;;;;;;2.35;0.70;;;;;;;15.89;75.72;98007.47;5105069;29;20098;-74
2023/03/14 08:37:31;;;;;;;2.67;0.50;;;;;;;16.28;77.34;98000.94;5104290;29;20126;-74
2023/03/14 08:40:06;;;;;;;2.60;0.60;;;;;;;15.68;76.13;98012.19;5090867;29;20425;-75
2023/03/14 08:42:38;;;;;;;4.57;0.80;;;;;;;14.70;79.29;98011.22;5098852;29;20050;-74
2023/03/14 08:45:12;;;;;;;2.55;0.50;;;;;;;14.34;82.09;98017.25;5107723;29;20055;-74
2023/03/14 08:47:43;;;;;;;3.20;0.70;;;;;;;13.97;83.33;98021.53;5105903;29;20414;-74
2023/03/14 08:50:14;;;;;;;4.30;0.63;;;;;;;13.78;84.29;98011.81;5099016;29;20039;-73
2023/03/14 08:52:44;;;;;;;2.25;0.70;;;;;;;13.69;84.60;98027.56;5096955;29;20409;-72
2023/03/14 08:55:14;;;;;;;2.25;0.60;;;;;;;13.48;85.50;98018.97;5092995;29;20497;-73
2023/03/14 08:57:45;;;;;;;3.75;0.68;;;;;;;13.33;86.35;98028.19;5097290;29;20035;-74
2023/03/14 09:00:16;;;;;;;1.05;0.40;;;;;;;13.24;87.70;98011.44;5113706;29;20031;-74
2023/03/14 09:02:47;;;;;;;4.57;0.55;;;;;;;13.42;87.09;98032.63;5098266;29;20039;-74
2023/03/14 09:05:17;;;;;;;2.55;0.63;;;;;;;13.32;88.45;98016.88;5102334;29;20038;-73
2023/03/14 09:07:47;;;;;;;3.63;0.70;;;;;;;13.70;88.45;98023.97;5100160;29;20090;-73
2023/03/14 09:10:18;;;;;;;2.30;0.40;;;;;;;13.47;88.18;98014.69;5098828;29;20070;-74
2023/03/14 09:12:48;;;;;;;1.80;0.73;;;;;;;13.33;88.26;98012.44;5097146;29;20038;-73
2023/03/14 09:15:19;;;;;;;0.82;0.30;;;;;;;13.45;88.64;98008.75;5105548;29;20027;-73
2023/03/14 09:17:49;;;;;;;2.88;0.65;;;;;;;13.49;89.22;98008.34;5100248;29;20082;-73
2023/03/14 09:20:19;;;;;;;2.42;0.60;;;;;;;13.47;88.81;98006.81;5098870;29;20031;-73
2023/03/14 09:22:50;;;;;;;1.08;0.45;;;;;;;13.83;88.60;98009.66;5095886;29;20032;-74
2023/03/14 09:25:20;;;;;;;0.93;0.43;;;;;;;13.74;88.64;98010.44;5098759;29;20086;-74
2023/03/14 09:27:50;;;;;;;3.05;0.52;;;;;;;14.08;87.33;98014.34;5112633;29;20107;-74
2023/03/14 09:30:21;;;;;;;2.17;0.60;;;;;;;14.06;87.73;98020.72;5100426;29;20067;-74
2023/03/14 09:32:51;;;;;;;3.03;0.80;;;;;;;13.78;87.79;98029.38;5097576;29;20429;-73
2023/03/14 09:35:22;;;;;;;2.83;0.80;;;;;;;13.67;88.81;98032.13;5106676;29;20031;-73
2023/03/14 09:37:52;;;;;;;2.00;0.80;;;;;;;13.51;87.66;98031.81;5109346;29;20098;-73
2023/03/14 09:40:23;;;;;;;1.85;0.40;;;;;;;13.28;88.97;98030.38;5099292;29;20055;-74
2023/03/14 09:42:54;;;;;;;4.00;0.82;;;;;;;13.11;90.07;98031.00;5097844;29;20035;-74
2023/03/14 09:45:31;;;;;;;1.42;0.60;;;;;;;13.31;89.58;98032.72;5096460;29;20081;-74
2023/03/14 09:48:03;;;;;;;2.90;0.80;;;;;;;13.30;89.59;98037.16;5098014;29;20457;-73
2023/03/14 09:50:41;;;;;;;1.00;0.45;;;;;;;13.21;89.15;98026.63;5099656;29;20485;-74
2023/03/14 09:53:23;;;;;;;0.90;0.32;;;;;;;13.35;89.53;98037.59;5091263;29;20035;-73
2023/03/14 09:55:55;;;;;;;2.53;0.50;;;;;;;13.43;89.64;98044.78;5100234;29;20035;-75
2023/03/14 09:58:25;;;;;;;2.20;0.47;;;;;;;13.81;87.98;98047.50;5089331;29;20031;-74
2023/03/14 10:00:58;;;;;;;1.48;0.60;;;;;;;13.72;87.97;98053.56;5087483;29;20082;-72
2023/03/14 10:03:32;;;;;;;0.90;0.28;;;;;;;13.59;86.57;98058.22;5098090;29;20041;-73
2023/03/14 10:06:10;;;;;;;1.63;0.40;;;;;;;13.81;86.62;98053.59;5101669;29;20457;-73
2023/03/14 10:08:42;;;;;;;1.00;0.28;;;;;;;13.90;86.91;98054.56;5094913;29;20074;-72
2023/03/14 10:11:17;;;;;;;2.42;0.52;;;;;;;14.09;86.66;98047.50;5100491;29;20035;-76
2023/03/14 10:14:05;;;;;;;1.17;0.32;;;;;;;14.35;85.62;98039.94;5104090;29;20028;-73
2023/03/14 10:16:40;;;;;;;1.70;0.40;;;;;;;14.18;85.25;98040.63;5112800;29;20497;-74
2023/03/14 10:19:13;;;;;;;2.83;1.10;;;;;;;14.10;86.12;98053.59;5114347;29;20489;-74
2023/03/14 10:21:49;;;;;;;1.52;0.38;;;;;;;14.12;86.18;98046.41;5100620;29;20043;-73
2023/03/14 10:24:21;;;;;;;1.92;0.52;;;;;;;14.13;86.69;98054.16;5101758;29;20239;-74
2023/03/14 10:27:01;;;;;;;2.88;0.57;;;;;;;14.10;84.97;98049.16;5101339;29;20024;-74
2023/03/14 10:29:34;;;;;;;1.08;0.32;;;;;;;14.03;86.78;98052.47;5106054;29;20091;-75
2023/03/14 10:32:07;;;;;;;0.82;0.43;;;;;;;14.04;86.91;98054.97;5101206;29;20031;-75
2023/03/14 10:34:38;;;;;;;2.33;0.60;;;;;;;14.02;87.76;98053.44;5103189;28;20027;-74
2023/03/14 10:37:22;;;;;;;1.58;0.63;;;;;;;13.97;87.64;98056.50;5108062;29;20430;-74
2023/03/14 10:39:55;;;;;;;2.05;0.50;;;;;;;13.89;88.90;98063.41;5102136;29;20563;-74
2023/03/14 10:42:31;;;;;;;1.85;0.50;;;;;;;14.04;90.34;98065.47;5100560;29;20031;-74
2023/03/14 10:45:07;;;;;;;1.45;0.50;;;;;;;13.81;91.32;98065.88;5101371;29;20047;-73
2023/03/14 10:47:47;;;;;;;;;;;;;;;14.05;91.32;98054.00;5098411;29;20485;-74
2023/03/14 10:50:30;;;;;;;1.52;0.40;;;;;;;14.18;89.93;98049.34;5105673;29;20406;-74
2023/03/14 10:53:05;;;;;;;2.08;0.60;;;;;;;14.23;92.48;98054.19;5097581;29;20439;-73
2023/03/14 10:55:44;;;;;;;1.43;0.40;;;;;;;14.14;92.94;98049.72;5104624;28;20074;-74
2023/03/14 10:58:26;;;;;;;0.75;0.30;;;;;;;14.07;91.75;98051.25;5101629;29;20095;-74
2023/03/14 11:01:09;;;;;;;1.02;0.52;;;;;;;14.32;90.15;98054.19;5100956;29;20027;-74
2023/03/14 11:03:51;;;;;;;1.20;0.38;;;;;;;14.02;89.48;98063.94;5099512;29;20035;-74
2023/03/14 11:06:31;;;;;;;2.78;0.60;;;;;;;14.12;89.89;98068.25;5083666;29;20120;-75
2023/03/14 11:09:10;;;;;;;2.42;0.50;;;;;;;14.28;90.44;98051.97;5097588;29;20312;-75
2023/03/14 11:11:45;;;;;;;1.88;0.60;;;;;;;14.30;89.66;98055.28;5100560;29;20530;-72
2023/03/14 11:14:34;;;;;;;0.95;0.40;;;;;;;14.12;90.02;98059.53;5107320;29;20298;-74
2023/03/14 11:17:10;;;;;;;1.30;0.50;;;;;;;14.06;88.89;98058.28;5100558;29;20060;-74
2023/03/14 11:19:49;;;;;;;0.88;0.40;;;;;;;13.98;87.69;98063.41;5098138;29;20031;-72
2023/03/14 11:22:42;;;;;;;0.90;0.40;;;;;;;13.99;87.40;98051.09;5098114;29;20119;-73
2023/03/14 11:25:21;;;;;;;0.98;0.43;;;;;;;13.92;87.81;98065.75;5098850;29;20039;-74
2023/03/14 11:28:17;;;;;;;2.03;0.55;;;;;;;13.99;86.59;98057.19;5098701;29;20042;-72
2023/03/14 11:30:50;;;;;;;0.47;0.38;;;;;;;13.98;87.80;98054.69;5097692;29;20299;-74
2023/03/14 11:33:26;;;;;;;0.93;0.35;;;;;;;13.92;87.98;98047.38;5098731;29;20036;-74
2023/03/14 11:36:04;;;;;;;0.85;0.40;;;;;;;13.80;88.82;98058.94;5102317;29;21547;-73
2023/03/14 11:38:43;;;;;;;2.10;0.40;;;;;;;13.85;92.18;98057.59;5098227;29;20769;-74
2023/03/14 11:41:26;;;;;;;0.30;0.20;;;;;;;13.71;95.13;98054.53;5094439;29;20031;-74
2023/03/14 11:43:59;;;;;;;1.70;0.40;;;;;;;13.94;94.16;98053.31;5093769;29;20425;-73
2023/03/14 11:46:37;;;;;;;0.43;0.30;;;;;;;13.89;94.31;98050.28;5098358;29;20058;-75
2023/03/14 11:49:16;;;;;;;0.28;0.10;;;;;;;14.05;92.61;98038.25;5095294;29;20141;-74
2023/03/14 11:51:51;;;;;;;0.15;0.10;;;;;;;14.21;90.64;98037.72;5084459;29;20381;-74